sensor_id;sensor_type;location;lat;lon;timestamp;temperature;humidity
24250;DHT22;12379;49.820;8.648;2024-03-23T00:55:52;10.00;99.90
24250;DHT22;12379;49.820;8.648;2024-03-23T00:58:18;10.10;99.90
24250;DHT22;12379;49.820;8.648;2024-03-23T01:00:43;10.20;99.90
24250;DHT22;12379;49.820;8.648;2024-03-23T01:03:09;10.40;99.90
24250;DHT22;12379;49.820;8.648;2024-03-23T01:05:35;10.50;99.90
24250;DHT22;12379;49.820;8.648;2024-03-23T01:08:00;10.60;99.90
24250;DHT22;12379;49.820;8.648;2024-03-23T01:10:26;10.70;99.90
24250;DHT22;12379;49.820;8.648;2024-03-23T01:12:51;10.70;99.90
24250;DHT22;12379;49.820;8.648;2024-03-23T01:15:17;10.80;99.90
24250;DHT22;12379;49.820;8.648;2024-03-23T01:17:42;10.80;99.90
24250;DHT22;12379;49.820;8.648;2024-03-23T01:20:08;10.80;99.90
24250;DHT22;12379;49.820;8.648;2024-03-23T01:22:33;10.80;99.90
24250;DHT22;12379;49.820;8.648;2024-03-23T01:24:59;10.80;99.90
24250;DHT22;12379;49.820;8.648;2024-03-23T01:27:24;10.80;99.90
24250;DHT22;12379;49.820;8.648;2024-03-23T01:29:50;10.90;99.90
24250;DHT22;12379;49.820;8.648;2024-03-23T01:32:18;10.90;99.90
24250;DHT22;12379;49.820;8.648;2024-03-23T01:34:44;10.90;99.90
24250;DHT22;12379;49.820;8.648;2024-03-23T01:37:09;10.90;99.90
24250;DHT22;12379;49.820;8.648;2024-03-23T01:39:35;10.90;99.90
24250;DHT22;12379;49.820;8.648;2024-03-23T01:42:00;10.70;99.90
24250;DHT22;12379;49.820;8.648;2024-03-23T01:44:26;10.60;99.90
24250;DHT22;12379;49.820;8.648;2024-03-23T01:46:51;10.60;99.90
24250;DHT22;12379;49.820;8.648;2024-03-23T01:49:17;10.60;99.90
24250;DHT22;12379;49.820;8.648;2024-03-23T01:51:44;10.60;99.90
24250;DHT22;12379;49.820;8.648;2024-03-23T01:54:10;10.50;99.90
24250;DHT22;12379;49.820;8.648;2024-03-23T01:56:36;10.50;99.90
24250;DHT22;12379;49.820;8.648;2024-03-23T01:59:05;10.50;99.90
24250;DHT22;12379;49.820;8.648;2024-03-23T02:01:40;10.40;99.90
24250;DHT22;12379;49.820;8.648;2024-03-23T02:04:06;10.40;99.90
24250;DHT22;12379;49.820;8.648;2024-03-23T02:06:33;10.30;99.90
24250;DHT22;12379;49.820;8.648;2024-03-23T02:08:59;10.30;99.90
24250;DHT22;12379;49.820;8.648;2024-03-23T02:11:25;10.40;99.90
24250;DHT22;12379;49.820;8.648;2024-03-23T02:13:51;10.40;99.90
24250;DHT22;12379;49.820;8.648;2024-03-23T02:16:16;10.40;99.90
24250;DHT22;12379;49.820;8.648;2024-03-23T02:18:42;10.40;99.90
24250;DHT22;12379;49.820;8.648;2024-03-23T02:21:07;10.40;99.90
24250;DHT22;12379;49.820;8.648;2024-03-23T02:23:33;10.40;99.90
24250;DHT22;12379;49.820;8.648;2024-03-23T02:25:58;10.50;99.90
24250;DHT22;12379;49.820;8.648;2024-03-23T02:28:24;10.50;99.90
24250;DHT22;12379;49.820;8.648;2024-03-23T02:30:49;10.50;99.90
24250;DHT22;12379;49.820;8.648;2024-03-23T02:33:15;10.40;99.90
24250;DHT22;12379;49.820;8.648;2024-03-23T02:35:41;10.40;99.90
24250;DHT22;12379;49.820;8.648;2024-03-23T02:38:07;10.50;99.90
24250;DHT22;12379;49.820;8.648;2024-03-23T02:40:32;10.60;99.90
24250;DHT22;12379;49.820;8.648;2024-03-23T02:42:58;10.60;99.90
24250;DHT22;12379;49.820;8.648;2024-03-23T02:45:23;10.60;99.90
24250;DHT22;12379;49.820;8.648;2024-03-23T02:47:49;10.50;99.90
24250;DHT22;12379;49.820;8.648;2024-03-23T02:50:18;10.50;99.90
24250;DHT22;12379;49.820;8.648;2024-03-23T02:52:43;10.40;99.90
24250;DHT22;12379;49.820;8.648;2024-03-23T02:55:09;10.50;99.90
24250;DHT22;12379;49.820;8.648;2024-03-23T02:57:34;10.50;99.90
24250;DHT22;12379;49.820;8.648;2024-03-23T03:00:00;10.60;99.90
24250;DHT22;12379;49.820;8.648;2024-03-23T03:02:25;10.60;99.90
24250;DHT22;12379;49.820;8.648;2024-03-23T03:04:51;10.60;99.90
24250;DHT22;12379;49.820;8.648;2024-03-23T03:07:17;10.50;99.90
24250;DHT22;12379;49.820;8.648;2024-03-23T03:09:42;10.50;99.90
24250;DHT22;12379;49.820;8.648;2024-03-23T03:12:08;10.40;99.90
24250;DHT22;12379;49.820;8.648;2024-03-23T03:14:34;10.50;99.90
24250;DHT22;12379;49.820;8.648;2024-03-23T03:17:00;10.50;99.90
24250;DHT22;12379;49.820;8.648;2024-03-23T03:19:26;10.50;99.90
24250;DHT22;12379;49.820;8.648;2024-03-23T03:21:51;10.50;99.90
24250;DHT22;12379;49.820;8.648;2024-03-23T03:24:17;10.50;99.90
24250;DHT22;12379;49.820;8.648;2024-03-23T03:26:43;10.50;99.90
24250;DHT22;12379;49.820;8.648;2024-03-23T03:29:09;10.50;99.90
24250;DHT22;12379;49.820;8.648;2024-03-23T03:31:34;10.60;99.90
24250;DHT22;12379;49.820;8.648;2024-03-23T03:34:00;10.70;99.90
24250;DHT22;12379;49.820;8.648;2024-03-23T03:36:25;10.80;99.90
24250;DHT22;12379;49.820;8.648;2024-03-23T03:38:51;10.90;99.90
24250;DHT22;12379;49.820;8.648;2024-03-23T03:41:18;11.00;99.90
24250;DHT22;12379;49.820;8.648;2024-03-23T03:43:43;11.10;99.90
24250;DHT22;12379;49.820;8.648;2024-03-23T03:46:09;11.20;99.90
24250;DHT22;12379;49.820;8.648;2024-03-23T03:48:37;11.20;99.90
24250;DHT22;12379;49.820;8.648;2024-03-23T03:51:07;11.30;99.90
24250;DHT22;12379;49.820;8.648;2024-03-23T03:53:32;11.20;99.90
24250;DHT22;12379;49.820;8.648;2024-03-23T03:56:01;11.20;99.90
24250;DHT22;12379;49.820;8.648;2024-03-23T03:58:27;11.20;99.90
24250;DHT22;12379;49.820;8.648;2024-03-23T04:00:53;11.30;99.90
24250;DHT22;12379;49.820;8.648;2024-03-23T04:03:19;11.30;99.90
24250;DHT22;12379;49.820;8.648;2024-03-23T04:05:53;11.30;99.90
24250;DHT22;12379;49.820;8.648;2024-03-23T04:08:19;11.30;99.90
24250;DHT22;12379;49.820;8.648;2024-03-23T04:10:45;11.40;99.90
24250;DHT22;12379;49.820;8.648;2024-03-23T04:13:14;11.30;99.90
24250;DHT22;12379;49.820;8.648;2024-03-23T04:15:40;11.30;99.90
24250;DHT22;12379;49.820;8.648;2024-03-23T04:18:06;11.30;99.90
24250;DHT22;12379;49.820;8.648;2024-03-23T04:20:31;11.30;99.90
24250;DHT22;12379;49.820;8.648;2024-03-23T04:23:00;11.40;99.90
24250;DHT22;12379;49.820;8.648;2024-03-23T04:25:26;11.30;99.90
24250;DHT22;12379;49.820;8.648;2024-03-23T04:27:52;11.40;99.90
24250;DHT22;12379;49.820;8.648;2024-03-23T04:30:18;11.50;99.90
24250;DHT22;12379;49.820;8.648;2024-03-23T04:32:44;11.50;99.90
24250;DHT22;12379;49.820;8.648;2024-03-23T04:35:10;11.50;99.90
24250;DHT22;12379;49.820;8.648;2024-03-23T04:37:39;11.50;99.90
24250;DHT22;12379;49.820;8.648;2024-03-23T04:40:08;11.50;99.90
24250;DHT22;12379;49.820;8.648;2024-03-23T04:42:34;11.40;99.90
24250;DHT22;12379;49.820;8.648;2024-03-23T04:45:00;11.20;99.90
24250;DHT22;12379;49.820;8.648;2024-03-23T04:47:26;10.60;99.90
24250;DHT22;12379;49.820;8.648;2024-03-23T04:49:52;9.80;99.90
24250;DHT22;12379;49.820;8.648;2024-03-23T04:52:18;9.30;99.90
24250;DHT22;12379;49.820;8.648;2024-03-23T04:54:43;9.00;99.90
24250;DHT22;12379;49.820;8.648;2024-03-23T04:57:10;8.70;99.90
24250;DHT22;12379;49.820;8.648;2024-03-23T04:59:36;8.60;99.90
24250;DHT22;12379;49.820;8.648;2024-03-23T05:02:01;8.50;99.90
24250;DHT22;12379;49.820;8.648;2024-03-23T05:04:28;8.40;99.90
24250;DHT22;12379;49.820;8.648;2024-03-23T05:06:53;8.40;99.90
24250;DHT22;12379;49.820;8.648;2024-03-23T05:09:19;8.40;99.90
24250;DHT22;12379;49.820;8.648;2024-03-23T05:11:45;8.40;99.90
24250;DHT22;12379;49.820;8.648;2024-03-23T05:14:13;8.40;99.90
24250;DHT22;12379;49.820;8.648;2024-03-23T05:16:38;8.30;99.90
24250;DHT22;12379;49.820;8.648;2024-03-23T05:19:04;8.20;99.90
24250;DHT22;12379;49.820;8.648;2024-03-23T05:21:30;8.10;99.90
24250;DHT22;12379;49.820;8.648;2024-03-23T05:23:55;8.00;99.90
24250;DHT22;12379;49.820;8.648;2024-03-23T05:26:22;8.00;99.90
24250;DHT22;12379;49.820;8.648;2024-03-23T05:28:47;8.00;99.90
24250;DHT22;12379;49.820;8.648;2024-03-23T05:31:23;8.10;99.90
24250;DHT22;12379;49.820;8.648;2024-03-23T05:33:48;8.10;99.90
24250;DHT22;12379;49.820;8.648;2024-03-23T05:36:14;8.10;99.90
24250;DHT22;12379;49.820;8.648;2024-03-23T05:38:39;8.20;99.90
24250;DHT22;12379;49.820;8.648;2024-03-23T05:41:05;8.30;99.90
24250;DHT22;12379;49.820;8.648;2024-03-23T05:43:30;8.20;99.90
24250;DHT22;12379;49.820;8.648;2024-03-23T05:45:57;8.20;99.90
24250;DHT22;12379;49.820;8.648;2024-03-23T05:48:23;8.20;99.90
24250;DHT22;12379;49.820;8.648;2024-03-23T05:50:50;8.20;99.90
24250;DHT22;12379;49.820;8.648;2024-03-23T05:53:16;8.10;99.90
24250;DHT22;12379;49.820;8.648;2024-03-23T05:55:42;8.10;99.90
24250;DHT22;12379;49.820;8.648;2024-03-23T05:58:08;8.10;99.90
24250;DHT22;12379;49.820;8.648;2024-03-23T06:00:33;8.00;99.90
24250;DHT22;12379;49.820;8.648;2024-03-23T06:02:59;8.00;99.90
24250;DHT22;12379;49.820;8.648;2024-03-23T06:05:25;8.00;99.90
24250;DHT22;12379;49.820;8.648;2024-03-23T06:07:50;7.90;99.90
24250;DHT22;12379;49.820;8.648;2024-03-23T06:10:16;8.00;99.90
24250;DHT22;12379;49.820;8.648;2024-03-23T06:12:41;7.90;99.90
24250;DHT22;12379;49.820;8.648;2024-03-23T06:15:07;7.90;99.90
24250;DHT22;12379;49.820;8.648;2024-03-23T06:17:36;7.90;99.90
24250;DHT22;12379;49.820;8.648;2024-03-23T06:20:02;7.90;99.90
24250;DHT22;12379;49.820;8.648;2024-03-23T06:22:27;7.90;99.90
24250;DHT22;12379;49.820;8.648;2024-03-23T06:24:53;7.80;99.90
24250;DHT22;12379;49.820;8.648;2024-03-23T06:27:19;7.90;99.90
24250;DHT22;12379;49.820;8.648;2024-03-23T06:29:44;8.00;99.90
24250;DHT22;12379;49.820;8.648;2024-03-23T06:32:10;8.00;99.90
24250;DHT22;12379;49.820;8.648;2024-03-23T06:34:35;7.90;99.90
24250;DHT22;12379;49.820;8.648;2024-03-23T06:37:01;7.90;99.90
24250;DHT22;12379;49.820;8.648;2024-03-23T06:39:26;7.90;99.90
24250;DHT22;12379;49.820;8.648;2024-03-23T06:41:53;7.80;99.90
24250;DHT22;12379;49.820;8.648;2024-03-23T06:44:19;7.80;99.90
24250;DHT22;12379;49.820;8.648;2024-03-23T06:46:45;7.70;99.90
24250;DHT22;12379;49.820;8.648;2024-03-23T06:49:11;7.80;99.90
24250;DHT22;12379;49.820;8.648;2024-03-23T06:51:36;7.70;99.90
24250;DHT22;12379;49.820;8.648;2024-03-23T06:54:03;7.80;99.90
24250;DHT22;12379;49.820;8.648;2024-03-23T06:56:29;7.80;99.90
24250;DHT22;12379;49.820;8.648;2024-03-23T06:58:55;7.80;99.90
24250;DHT22;12379;49.820;8.648;2024-03-23T07:01:21;7.80;99.90
24250;DHT22;12379;49.820;8.648;2024-03-23T07:03:46;7.70;99.90
24250;DHT22;12379;49.820;8.648;2024-03-23T07:06:12;7.60;99.90
24250;DHT22;12379;49.820;8.648;2024-03-23T07:08:37;7.70;99.90
24250;DHT22;12379;49.820;8.648;2024-03-23T07:11:03;7.60;99.90
24250;DHT22;12379;49.820;8.648;2024-03-23T07:13:30;7.50;99.90
24250;DHT22;12379;49.820;8.648;2024-03-23T07:15:56;7.40;99.90
24250;DHT22;12379;49.820;8.648;2024-03-23T07:18:22;7.40;99.90
24250;DHT22;12379;49.820;8.648;2024-03-23T07:20:57;7.30;99.90
24250;DHT22;12379;49.820;8.648;2024-03-23T07:23:24;7.40;99.90
24250;DHT22;12379;49.820;8.648;2024-03-23T07:26:03;7.40;99.90
24250;DHT22;12379;49.820;8.648;2024-03-23T07:28:33;7.30;99.90
24250;DHT22;12379;49.820;8.648;2024-03-23T07:31:06;7.30;99.90
24250;DHT22;12379;49.820;8.648;2024-03-23T07:33:35;7.30;99.90
24250;DHT22;12379;49.820;8.648;2024-03-23T07:36:01;7.50;99.90
24250;DHT22;12379;49.820;8.648;2024-03-23T07:38:28;7.40;99.90
24250;DHT22;12379;49.820;8.648;2024-03-23T07:41:05;7.40;99.90
24250;DHT22;12379;49.820;8.648;2024-03-23T07:43:31;7.30;99.90
24250;DHT22;12379;49.820;8.648;2024-03-23T07:45:57;7.40;99.90
24250;DHT22;12379;49.820;8.648;2024-03-23T07:48:22;7.40;99.90
24250;DHT22;12379;49.820;8.648;2024-03-23T07:51:06;7.30;99.90
24250;DHT22;12379;49.820;8.648;2024-03-23T07:53:32;7.40;99.90
24250;DHT22;12379;49.820;8.648;2024-03-23T07:56:02;7.50;99.90
24250;DHT22;12379;49.820;8.648;2024-03-23T07:58:27;7.50;99.90
24250;DHT22;12379;49.820;8.648;2024-03-23T08:01:02;7.50;99.90
24250;DHT22;12379;49.820;8.648;2024-03-23T08:03:28;7.70;99.90
24250;DHT22;12379;49.820;8.648;2024-03-23T08:05:54;7.80;99.90
24250;DHT22;12379;49.820;8.648;2024-03-23T08:08:19;7.90;99.90
24250;DHT22;12379;49.820;8.648;2024-03-23T08:10:49;8.00;99.90
24250;DHT22;12379;49.820;8.648;2024-03-23T08:13:15;7.90;99.90
24250;DHT22;12379;49.820;8.648;2024-03-23T08:15:40;7.90;99.90
24250;DHT22;12379;49.820;8.648;2024-03-23T08:18:06;7.80;99.90
24250;DHT22;12379;49.820;8.648;2024-03-23T08:20:32;7.80;99.90
24250;DHT22;12379;49.820;8.648;2024-03-23T08:22:57;7.80;99.90
24250;DHT22;12379;49.820;8.648;2024-03-23T08:25:23;7.60;99.90
24250;DHT22;12379;49.820;8.648;2024-03-23T08:27:48;7.50;99.90
24250;DHT22;12379;49.820;8.648;2024-03-23T08:30:14;7.60;99.90
24250;DHT22;12379;49.820;8.648;2024-03-23T08:32:39;7.50;99.90
24250;DHT22;12379;49.820;8.648;2024-03-23T08:35:05;7.90;99.90
24250;DHT22;12379;49.820;8.648;2024-03-23T08:37:31;8.80;99.90
24250;DHT22;12379;49.820;8.648;2024-03-23T08:39:57;10.30;99.90
24250;DHT22;12379;49.820;8.648;2024-03-23T08:42:22;10.30;99.90
24250;DHT22;12379;49.820;8.648;2024-03-23T08:44:48;10.00;99.90
24250;DHT22;12379;49.820;8.648;2024-03-23T08:47:16;9.50;99.90
24250;DHT22;12379;49.820;8.648;2024-03-23T08:49:42;9.60;99.90
24250;DHT22;12379;49.820;8.648;2024-03-23T08:52:08;9.50;99.90
24250;DHT22;12379;49.820;8.648;2024-03-23T08:54:33;9.40;99.90
24250;DHT22;12379;49.820;8.648;2024-03-23T08:57:00;8.80;99.90
24250;DHT22;12379;49.820;8.648;2024-03-23T08:59:48;8.90;99.90
24250;DHT22;12379;49.820;8.648;2024-03-23T09:02:27;8.90;99.90
24250;DHT22;12379;49.820;8.648;2024-03-23T09:05:12;9.30;99.90
24250;DHT22;12379;49.820;8.648;2024-03-23T09:08:03;9.60;99.90
24250;DHT22;12379;49.820;8.648;2024-03-23T09:10:34;9.90;99.90
24250;DHT22;12379;49.820;8.648;2024-03-23T09:13:24;10.60;99.90
24250;DHT22;12379;49.820;8.648;2024-03-23T09:15:58;10.50;99.90
24250;DHT22;12379;49.820;8.648;2024-03-23T09:18:23;10.30;99.90
24250;DHT22;12379;49.820;8.648;2024-03-23T09:20:49;10.20;99.90
24250;DHT22;12379;49.820;8.648;2024-03-23T09:23:15;10.10;99.90
24250;DHT22;12379;49.820;8.648;2024-03-23T09:25:41;10.10;99.90
24250;DHT22;12379;49.820;8.648;2024-03-23T09:28:07;10.30;99.90
24250;DHT22;12379;49.820;8.648;2024-03-23T09:30:36;10.10;99.90
24250;DHT22;12379;49.820;8.648;2024-03-23T09:33:08;10.00;99.90
24250;DHT22;12379;49.820;8.648;2024-03-23T09:35:41;9.90;99.90
24250;DHT22;12379;49.820;8.648;2024-03-23T09:38:12;10.00;99.90
24250;DHT22;12379;49.820;8.648;2024-03-23T09:40:41;9.70;99.90
24250;DHT22;12379;49.820;8.648;2024-03-23T09:43:08;9.80;99.90
24250;DHT22;12379;49.820;8.648;2024-03-23T09:45:38;9.80;99.90
24250;DHT22;12379;49.820;8.648;2024-03-23T09:48:09;9.90;99.90
24250;DHT22;12379;49.820;8.648;2024-03-23T09:50:39;10.00;99.90
24250;DHT22;12379;49.820;8.648;2024-03-23T09:53:10;9.80;99.90
24250;DHT22;12379;49.820;8.648;2024-03-23T09:55:37;9.80;99.90
24250;DHT22;12379;49.820;8.648;2024-03-23T09:58:04;9.80;99.90
24250;DHT22;12379;49.820;8.648;2024-03-23T10:00:32;9.80;99.90
24250;DHT22;12379;49.820;8.648;2024-03-23T10:02:59;10.30;99.90
24250;DHT22;12379;49.820;8.648;2024-03-23T10:05:28;10.50;99.90
24250;DHT22;12379;49.820;8.648;2024-03-23T10:07:54;11.00;99.90
24250;DHT22;12379;49.820;8.648;2024-03-23T10:10:28;12.50;99.90
24250;DHT22;12379;49.820;8.648;2024-03-23T10:13:02;14.30;98.50
24250;DHT22;12379;49.820;8.648;2024-03-23T10:25:56;13.10;95.50
24250;DHT22;12379;49.820;8.648;2024-03-23T10:35:58;11.90;95.00
24250;DHT22;12379;49.820;8.648;2024-03-23T10:38:34;12.10;94.60
24250;DHT22;12379;49.820;8.648;2024-03-23T10:40:59;12.00;94.50
24250;DHT22;12379;49.820;8.648;2024-03-23T10:43:25;11.20;95.30
24250;DHT22;12379;49.820;8.648;2024-03-23T10:45:51;11.10;96.20
24250;DHT22;12379;49.820;8.648;2024-03-23T10:48:16;11.30;96.60
24250;DHT22;12379;49.820;8.648;2024-03-23T10:50:55;11.10;96.30
24250;DHT22;12379;49.820;8.648;2024-03-23T10:53:30;11.20;96.30
24250;DHT22;12379;49.820;8.648;2024-03-23T10:56:00;11.10;97.30
24250;DHT22;12379;49.820;8.648;2024-03-23T10:58:33;10.60;97.30
24250;DHT22;12379;49.820;8.648;2024-03-23T11:01:05;9.70;97.10
24250;DHT22;12379;49.820;8.648;2024-03-23T11:03:35;9.10;99.50
24250;DHT22;12379;49.820;8.648;2024-03-23T11:06:05;8.30;99.90
24250;DHT22;12379;49.820;8.648;2024-03-23T11:08:38;7.90;99.90
24250;DHT22;12379;49.820;8.648;2024-03-23T11:11:14;7.80;99.90
24250;DHT22;12379;49.820;8.648;2024-03-23T11:13:39;7.40;99.90
24250;DHT22;12379;49.820;8.648;2024-03-23T11:16:15;7.50;99.90
24250;DHT22;12379;49.820;8.648;2024-03-23T11:18:41;7.20;99.90
24250;DHT22;12379;49.820;8.648;2024-03-23T11:21:07;7.30;99.90
24250;DHT22;12379;49.820;8.648;2024-03-23T11:23:33;7.40;99.90
24250;DHT22;12379;49.820;8.648;2024-03-23T11:25:59;7.70;99.90
24250;DHT22;12379;49.820;8.648;2024-03-23T11:28:24;7.90;99.90
24250;DHT22;12379;49.820;8.648;2024-03-23T11:30:50;7.80;99.90
24250;DHT22;12379;49.820;8.648;2024-03-23T11:33:15;7.60;99.90
24250;DHT22;12379;49.820;8.648;2024-03-23T11:35:41;7.70;99.90
24250;DHT22;12379;49.820;8.648;2024-03-23T11:38:25;7.90;99.90
24250;DHT22;12379;49.820;8.648;2024-03-23T11:40:50;7.70;99.90
24250;DHT22;12379;49.820;8.648;2024-03-23T11:43:17;7.70;99.90
24250;DHT22;12379;49.820;8.648;2024-03-23T11:45:51;7.90;99.90
24250;DHT22;12379;49.820;8.648;2024-03-23T11:48:22;8.30;99.90
24250;DHT22;12379;49.820;8.648;2024-03-23T11:50:49;8.60;99.90
24250;DHT22;12379;49.820;8.648;2024-03-23T11:53:20;8.70;99.90
24250;DHT22;12379;49.820;8.648;2024-03-23T11:55:53;8.90;99.90
24250;DHT22;12379;49.820;8.648;2024-03-23T11:58:23;9.30;99.90
24250;DHT22;12379;49.820;8.648;2024-03-23T12:01:00;9.60;99.90
24250;DHT22;12379;49.820;8.648;2024-03-23T12:03:31;9.70;99.90
24250;DHT22;12379;49.820;8.648;2024-03-23T12:06:28;9.80;99.90
24250;DHT22;12379;49.820;8.648;2024-03-23T12:09:14;10.60;99.90
24250;DHT22;12379;49.820;8.648;2024-03-23T12:11:39;11.30;99.90
24250;DHT22;12379;49.820;8.648;2024-03-23T12:14:05;11.80;99.10
24250;DHT22;12379;49.820;8.648;2024-03-23T12:16:30;12.00;98.30
24250;DHT22;12379;49.820;8.648;2024-03-23T12:19:05;11.40;98.20
24250;DHT22;12379;49.820;8.648;2024-03-23T12:21:31;11.50;98.70
24250;DHT22;12379;49.820;8.648;2024-03-23T12:23:56;11.80;97.40
24250;DHT22;12379;49.820;8.648;2024-03-23T12:26:24;11.80;96.50
24250;DHT22;12379;49.820;8.648;2024-03-23T12:28:49;11.70;96.50
24250;DHT22;12379;49.820;8.648;2024-03-23T12:31:15;11.50;97.30
24250;DHT22;12379;49.820;8.648;2024-03-23T12:33:40;11.40;97.10
24250;DHT22;12379;49.820;8.648;2024-03-23T12:36:06;11.50;97.30
24250;DHT22;12379;49.820;8.648;2024-03-23T12:38:32;11.50;97.10
24250;DHT22;12379;49.820;8.648;2024-03-23T12:40:58;11.40;97.30
24250;DHT22;12379;49.820;8.648;2024-03-23T12:43:25;11.20;97.70
24250;DHT22;12379;49.820;8.648;2024-03-23T12:45:51;11.20;97.90
24250;DHT22;12379;49.820;8.648;2024-03-23T12:48:16;10.90;98.20
24250;DHT22;12379;49.820;8.648;2024-03-23T12:50:42;10.60;98.70
24250;DHT22;12379;49.820;8.648;2024-03-23T12:53:08;10.10;99.30
24250;DHT22;12379;49.820;8.648;2024-03-23T12:55:37;10.00;99.90
24250;DHT22;12379;49.820;8.648;2024-03-23T12:58:02;10.50;99.60
24250;DHT22;12379;49.820;8.648;2024-03-23T13:00:28;10.80;99.50
24250;DHT22;12379;49.820;8.648;2024-03-23T13:02:54;10.80;99.80
24250;DHT22;12379;49.820;8.648;2024-03-23T13:05:19;10.20;99.90
24250;DHT22;12379;49.820;8.648;2024-03-23T13:07:45;10.00;99.90
24250;DHT22;12379;49.820;8.648;2024-03-23T13:10:11;9.90;99.90
24250;DHT22;12379;49.820;8.648;2024-03-23T13:12:36;9.60;99.90
24250;DHT22;12379;49.820;8.648;2024-03-23T13:15:02;9.40;99.90
24250;DHT22;12379;49.820;8.648;2024-03-23T13:17:28;9.20;99.90
24250;DHT22;12379;49.820;8.648;2024-03-23T13:19:54;9.20;99.90
24250;DHT22;12379;49.820;8.648;2024-03-23T13:22:21;9.10;99.90
24250;DHT22;12379;49.820;8.648;2024-03-23T13:24:47;8.50;99.90
24250;DHT22;12379;49.820;8.648;2024-03-23T13:27:13;7.90;99.90
24250;DHT22;12379;49.820;8.648;2024-03-23T13:29:38;7.70;99.90
24250;DHT22;12379;49.820;8.648;2024-03-23T13:32:04;7.60;99.90
24250;DHT22;12379;49.820;8.648;2024-03-23T13:34:31;7.60;99.90
24250;DHT22;12379;49.820;8.648;2024-03-23T13:36:56;7.50;99.90
24250;DHT22;12379;49.820;8.648;2024-03-23T13:39:25;7.70;99.90
24250;DHT22;12379;49.820;8.648;2024-03-23T13:41:53;8.00;99.90
24250;DHT22;12379;49.820;8.648;2024-03-23T13:44:21;8.60;99.90
24250;DHT22;12379;49.820;8.648;2024-03-23T13:46:47;8.70;99.90
24250;DHT22;12379;49.820;8.648;2024-03-23T13:49:29;8.90;99.90
24250;DHT22;12379;49.820;8.648;2024-03-23T13:51:57;9.10;99.90
24250;DHT22;12379;49.820;8.648;2024-03-23T13:54:24;9.40;99.90
24250;DHT22;12379;49.820;8.648;2024-03-23T13:56:50;9.90;99.90
24250;DHT22;12379;49.820;8.648;2024-03-23T13:59:16;10.20;99.90
24250;DHT22;12379;49.820;8.648;2024-03-23T14:01:42;10.20;99.90
24250;DHT22;12379;49.820;8.648;2024-03-23T14:04:08;10.60;99.90
24250;DHT22;12379;49.820;8.648;2024-03-23T14:06:34;10.80;99.90
24250;DHT22;12379;49.820;8.648;2024-03-23T14:08:59;11.20;99.90
24250;DHT22;12379;49.820;8.648;2024-03-23T14:11:25;11.10;99.90
24250;DHT22;12379;49.820;8.648;2024-03-23T14:13:52;11.30;99.90
24250;DHT22;12379;49.820;8.648;2024-03-23T14:16:18;11.30;99.90
24250;DHT22;12379;49.820;8.648;2024-03-23T14:18:46;11.20;99.90
24250;DHT22;12379;49.820;8.648;2024-03-23T14:21:12;11.10;99.90
24250;DHT22;12379;49.820;8.648;2024-03-23T14:23:37;10.60;99.90
24250;DHT22;12379;49.820;8.648;2024-03-23T14:26:03;10.50;99.90
24250;DHT22;12379;49.820;8.648;2024-03-23T14:28:29;10.40;99.90
24250;DHT22;12379;49.820;8.648;2024-03-23T14:30:56;10.40;99.90
24250;DHT22;12379;49.820;8.648;2024-03-23T14:33:21;10.20;99.90
24250;DHT22;12379;49.820;8.648;2024-03-23T14:35:54;10.00;99.90
24250;DHT22;12379;49.820;8.648;2024-03-23T14:38:22;10.10;99.90
24250;DHT22;12379;49.820;8.648;2024-03-23T14:40:48;10.10;99.90
24250;DHT22;12379;49.820;8.648;2024-03-23T14:43:14;9.90;99.90
24250;DHT22;12379;49.820;8.648;2024-03-23T14:48:32;9.90;99.90
24250;DHT22;12379;49.820;8.648;2024-03-23T14:50:59;9.60;99.90
24250;DHT22;12379;49.820;8.648;2024-03-23T14:53:26;9.70;99.90
24250;DHT22;12379;49.820;8.648;2024-03-23T14:55:55;9.80;99.90
24250;DHT22;12379;49.820;8.648;2024-03-23T14:58:21;10.00;99.90
24250;DHT22;12379;49.820;8.648;2024-03-23T15:00:48;10.10;99.90
24250;DHT22;12379;49.820;8.648;2024-03-23T15:03:14;9.80;99.90
24250;DHT22;12379;49.820;8.648;2024-03-23T15:05:40;9.60;99.90
24250;DHT22;12379;49.820;8.648;2024-03-23T15:08:06;9.40;99.90
24250;DHT22;12379;49.820;8.648;2024-03-23T15:10:33;9.20;99.90
24250;DHT22;12379;49.820;8.648;2024-03-23T15:12:59;9.10;99.90
24250;DHT22;12379;49.820;8.648;2024-03-23T15:15:25;9.20;99.90
24250;DHT22;12379;49.820;8.648;2024-03-23T15:17:51;9.20;99.90
24250;DHT22;12379;49.820;8.648;2024-03-23T15:20:18;9.30;99.90
24250;DHT22;12379;49.820;8.648;2024-03-23T15:22:43;9.30;99.90
24250;DHT22;12379;49.820;8.648;2024-03-23T15:25:09;9.40;99.90
24250;DHT22;12379;49.820;8.648;2024-03-23T15:27:35;9.70;99.90
24250;DHT22;12379;49.820;8.648;2024-03-23T15:30:00;10.00;99.90
24250;DHT22;12379;49.820;8.648;2024-03-23T15:32:26;9.90;99.90
24250;DHT22;12379;49.820;8.648;2024-03-23T15:34:51;9.70;99.90
24250;DHT22;12379;49.820;8.648;2024-03-23T15:37:17;9.50;99.90
24250;DHT22;12379;49.820;8.648;2024-03-23T15:39:43;9.30;99.90
24250;DHT22;12379;49.820;8.648;2024-03-23T15:42:08;9.30;99.90
24250;DHT22;12379;49.820;8.648;2024-03-23T15:44:35;9.10;99.90
24250;DHT22;12379;49.820;8.648;2024-03-23T15:47:01;9.20;99.90
24250;DHT22;12379;49.820;8.648;2024-03-23T15:49:27;9.20;99.90
24250;DHT22;12379;49.820;8.648;2024-03-23T15:51:52;9.20;99.90
24250;DHT22;12379;49.820;8.648;2024-03-23T15:54:19;9.20;99.90
24250;DHT22;12379;49.820;8.648;2024-03-23T15:56:44;9.00;99.90
24250;DHT22;12379;49.820;8.648;2024-03-23T15:59:11;8.60;99.90
24250;DHT22;12379;49.820;8.648;2024-03-23T16:01:36;8.60;99.90
24250;DHT22;12379;49.820;8.648;2024-03-23T16:04:04;8.60;99.90
24250;DHT22;12379;49.820;8.648;2024-03-23T16:06:30;8.80;99.90
24250;DHT22;12379;49.820;8.648;2024-03-23T16:08:56;9.00;99.90
24250;DHT22;12379;49.820;8.648;2024-03-23T16:11:24;9.00;99.90
24250;DHT22;12379;49.820;8.648;2024-03-23T16:13:49;9.00;99.90
24250;DHT22;12379;49.820;8.648;2024-03-23T16:16:15;8.80;99.90
24250;DHT22;12379;49.820;8.648;2024-03-23T16:18:41;8.90;99.90
24250;DHT22;12379;49.820;8.648;2024-03-23T16:21:09;8.60;99.90
24250;DHT22;12379;49.820;8.648;2024-03-23T16:23:36;8.60;99.90
24250;DHT22;12379;49.820;8.648;2024-03-23T16:26:07;8.60;99.90
24250;DHT22;12379;49.820;8.648;2024-03-23T16:28:36;8.50;99.90
24250;DHT22;12379;49.820;8.648;2024-03-23T16:31:07;8.50;99.90
24250;DHT22;12379;49.820;8.648;2024-03-23T16:33:34;8.60;99.90
24250;DHT22;12379;49.820;8.648;2024-03-23T16:36:07;8.50;99.90
24250;DHT22;12379;49.820;8.648;2024-03-23T16:38:34;8.50;99.90
24250;DHT22;12379;49.820;8.648;2024-03-23T16:41:01;8.60;99.90
24250;DHT22;12379;49.820;8.648;2024-03-23T16:43:28;8.80;99.90
24250;DHT22;12379;49.820;8.648;2024-03-23T16:45:57;8.80;99.90
24250;DHT22;12379;49.820;8.648;2024-03-23T16:48:25;8.80;99.90
24250;DHT22;12379;49.820;8.648;2024-03-23T16:50:52;8.80;99.90
24250;DHT22;12379;49.820;8.648;2024-03-23T16:53:18;8.80;99.90
24250;DHT22;12379;49.820;8.648;2024-03-23T16:55:44;8.70;99.90